Albion, NY (14411)

11:47 AM EST on December 07, 2016 (GMT -0500)
Orleans Poverty Hill Farms | | Change Station

Elev 597 ft 43.22 °N, 78.24 °W | Updated 2 minutes ago

Mostly Cloudy
Mostly Cloudy
37.9 °F
Feels Like 31 °F
N
11.0
Wind Variable Wind from NW
Gusts 15.0 mph

Today
High -- | Low -- °F
--% Chance of Precip.
Yesterday
High -- | Low -- °F
Precip. -- in
Pressure 29.99 in
Visibility 10.0 miles
Clouds Few 2700 ft
Mostly Cloudy 4100 ft
Mostly Cloudy 20000 ft
Windchill 31 °F
Dew Point 31 °F
Humidity 76%
Rainfall 0.05 in
Snow Depth Not available.
7:31 AM 4:37 PM
First Quarter, 54% visible
METAR KROC 071554Z 26014KT 10SM FEW027 BKN041 BKN200 04/M02 A2997 RMK AO2 SLP156 T00391017
Pressure 29.99 in
Visibility 10.0 miles
Clouds Few 2700 ft
Mostly Cloudy 4100 ft
Mostly Cloudy 20000 ft
Windchill 31 °F
Dew Point 31 °F
Humidity 76%
Rainfall 0.05 in
Snow Depth Not available.
7:31 AM 4:37 PM
First Quarter, 54% visible
METAR KROC 071554Z 26014KT 10SM FEW027 BKN041 BKN200 04/M02 A2997 RMK AO2 SLP156 T00391017

10-Day Weather Forecast

Almanac

Astronomy

Dec. 07, 2016 Rise Set
Actual Time
Civil Twilight
Nautical Twilight
Astronomical Twilight
Moon
Length of Visible Light
Length of Day
Tomorrow will be .
, % of the Moon is Illuminated

Today's Extremes

State Highs State Lows

Community

WunderPhotos

Upload Photos

1,956,132 photos uploaded!

WunderBlog® & News

Nearby

Air Quality

  Air Quality AQ Index Pollutant
Not available.

Snow Depth

Station Depth Elevation

Earthquake Activity

City Distance Mag. Time & Date
Minimum magnitude displayed is 2.5.

Coastal Water Temperatures

Place Temperature

Stations

Nearby Weather Stations

Station Location Temp. Windchill Dew Point Humidity Wind Precip. Elev Updated Type
                   

Watches & Warnings

There are currently no watches in effect.